sensor_id;sensor_type;location;lat;lon;timestamp;temperature;humidity
20335;DHT22;10325;51.468;5.804;2023-06-10T00:01:56;27.40;49.30
20335;DHT22;10325;51.468;5.804;2023-06-10T00:04:30;27.40;49.30
20335;DHT22;10325;51.468;5.804;2023-06-10T00:07:04;27.40;49.30
20335;DHT22;10325;51.468;5.804;2023-06-10T00:09:44;27.40;49.30
20335;DHT22;10325;51.468;5.804;2023-06-10T00:12:15;27.40;49.20
20335;DHT22;10325;51.468;5.804;2023-06-10T00:14:45;27.40;49.20
20335;DHT22;10325;51.468;5.804;2023-06-10T00:17:12;27.40;49.20
20335;DHT22;10325;51.468;5.804;2023-06-10T00:19:40;27.30;49.20
20335;DHT22;10325;51.468;5.804;2023-06-10T00:22:13;27.30;49.20
20335;DHT22;10325;51.468;5.804;2023-06-10T00:24:43;27.40;49.30
20335;DHT22;10325;51.468;5.804;2023-06-10T00:27:14;27.40;49.20
20335;DHT22;10325;51.468;5.804;2023-06-10T00:29:44;27.40;49.20
20335;DHT22;10325;51.468;5.804;2023-06-10T00:32:22;27.30;49.20
20335;DHT22;10325;51.468;5.804;2023-06-10T00:34:51;27.30;49.10
20335;DHT22;10325;51.468;5.804;2023-06-10T00:37:18;27.30;49.10
20335;DHT22;10325;51.468;5.804;2023-06-10T00:39:56;27.30;49.20
20335;DHT22;10325;51.468;5.804;2023-06-10T00:42:26;27.30;49.20
20335;DHT22;10325;51.468;5.804;2023-06-10T00:44:56;27.30;49.20
20335;DHT22;10325;51.468;5.804;2023-06-10T00:47:23;27.20;49.10
20335;DHT22;10325;51.468;5.804;2023-06-10T00:49:52;27.30;49.20
20335;DHT22;10325;51.468;5.804;2023-06-10T00:52:30;27.20;49.10
20335;DHT22;10325;51.468;5.804;2023-06-10T00:55:00;27.20;49.10
20335;DHT22;10325;51.468;5.804;2023-06-10T00:57:33;27.20;49.10
20335;DHT22;10325;51.468;5.804;2023-06-10T01:00:04;27.20;49.10
20335;DHT22;10325;51.468;5.804;2023-06-10T01:02:38;27.20;49.10
20335;DHT22;10325;51.468;5.804;2023-06-10T01:05:10;27.20;49.10
20335;DHT22;10325;51.468;5.804;2023-06-10T01:08:09;27.20;49.10
20335;DHT22;10325;51.468;5.804;2023-06-10T01:10:53;27.20;49.10
20335;DHT22;10325;51.468;5.804;2023-06-10T01:13:26;27.20;49.10
20335;DHT22;10325;51.468;5.804;2023-06-10T01:16:01;27.10;49.10
20335;DHT22;10325;51.468;5.804;2023-06-10T01:18:32;27.10;49.10
20335;DHT22;10325;51.468;5.804;2023-06-10T01:21:05;27.10;49.10
20335;DHT22;10325;51.468;5.804;2023-06-10T01:23:38;27.10;49.10
20335;DHT22;10325;51.468;5.804;2023-06-10T01:26:10;27.10;49.10
20335;DHT22;10325;51.468;5.804;2023-06-10T01:29:02;27.10;49.00
20335;DHT22;10325;51.468;5.804;2023-06-10T01:31:51;27.10;49.00
20335;DHT22;10325;51.468;5.804;2023-06-10T01:34:25;27.10;49.00
20335;DHT22;10325;51.468;5.804;2023-06-10T01:37:16;27.10;49.10
20335;DHT22;10325;51.468;5.804;2023-06-10T01:39:48;27.10;49.10
20335;DHT22;10325;51.468;5.804;2023-06-10T01:42:21;27.00;49.70
20335;DHT22;10325;51.468;5.804;2023-06-10T01:44:54;27.00;49.00
20335;DHT22;10325;51.468;5.804;2023-06-10T01:47:27;27.10;49.00
20335;DHT22;10325;51.468;5.804;2023-06-10T01:49:57;27.00;49.00
20335;DHT22;10325;51.468;5.804;2023-06-10T01:52:26;27.00;49.00
20335;DHT22;10325;51.468;5.804;2023-06-10T01:54:55;27.00;49.00
20335;DHT22;10325;51.468;5.804;2023-06-10T01:57:26;27.00;49.00
20335;DHT22;10325;51.468;5.804;2023-06-10T01:59:58;27.00;49.00
20335;DHT22;10325;51.468;5.804;2023-06-10T02:02:29;27.00;49.00
20335;DHT22;10325;51.468;5.804;2023-06-10T02:05:04;27.00;49.10
20335;DHT22;10325;51.468;5.804;2023-06-10T02:07:38;27.00;49.00
20335;DHT22;10325;51.468;5.804;2023-06-10T02:10:09;27.00;49.10
20335;DHT22;10325;51.468;5.804;2023-06-10T02:12:39;27.00;49.00
20335;DHT22;10325;51.468;5.804;2023-06-10T02:15:12;27.00;49.10
20335;DHT22;10325;51.468;5.804;2023-06-10T02:17:42;27.00;49.10
20335;DHT22;10325;51.468;5.804;2023-06-10T02:20:17;27.00;48.90
20335;DHT22;10325;51.468;5.804;2023-06-10T02:22:47;27.00;49.00
20335;DHT22;10325;51.468;5.804;2023-06-10T02:25:15;27.00;49.10
20335;DHT22;10325;51.468;5.804;2023-06-10T02:27:46;26.90;49.60
20335;DHT22;10325;51.468;5.804;2023-06-10T02:30:16;27.00;49.10
20335;DHT22;10325;51.468;5.804;2023-06-10T02:32:44;26.90;49.00
20335;DHT22;10325;51.468;5.804;2023-06-10T02:35:20;26.90;49.00
20335;DHT22;10325;51.468;5.804;2023-06-10T02:37:52;26.90;49.00
20335;DHT22;10325;51.468;5.804;2023-06-10T02:40:23;26.90;49.00
20335;DHT22;10325;51.468;5.804;2023-06-10T02:42:53;26.90;49.00
20335;DHT22;10325;51.468;5.804;2023-06-10T02:45:24;26.90;49.00
20335;DHT22;10325;51.468;5.804;2023-06-10T02:47:55;26.90;49.00
20335;DHT22;10325;51.468;5.804;2023-06-10T02:50:22;26.90;48.90
20335;DHT22;10325;51.468;5.804;2023-06-10T02:52:54;26.90;48.90
20335;DHT22;10325;51.468;5.804;2023-06-10T02:55:24;26.90;48.90
20335;DHT22;10325;51.468;5.804;2023-06-10T02:57:58;26.90;48.80
20335;DHT22;10325;51.468;5.804;2023-06-10T03:00:28;26.90;49.00
20335;DHT22;10325;51.468;5.804;2023-06-10T03:03:02;26.80;49.00
20335;DHT22;10325;51.468;5.804;2023-06-10T03:05:32;26.80;49.00
20335;DHT22;10325;51.468;5.804;2023-06-10T03:08:04;26.80;49.00
20335;DHT22;10325;51.468;5.804;2023-06-10T03:10:33;26.80;48.80
20335;DHT22;10325;51.468;5.804;2023-06-10T03:13:04;26.80;48.90
20335;DHT22;10325;51.468;5.804;2023-06-10T03:15:37;26.80;49.00
20335;DHT22;10325;51.468;5.804;2023-06-10T03:18:09;26.80;49.00
20335;DHT22;10325;51.468;5.804;2023-06-10T03:20:39;26.80;49.00
20335;DHT22;10325;51.468;5.804;2023-06-10T03:23:13;26.80;49.00
20335;DHT22;10325;51.468;5.804;2023-06-10T03:25:44;26.80;49.10
20335;DHT22;10325;51.468;5.804;2023-06-10T03:28:14;26.80;49.00
20335;DHT22;10325;51.468;5.804;2023-06-10T03:30:45;26.80;49.10
20335;DHT22;10325;51.468;5.804;2023-06-10T03:33:15;26.70;49.00
20335;DHT22;10325;51.468;5.804;2023-06-10T03:35:46;26.70;49.00
20335;DHT22;10325;51.468;5.804;2023-06-10T03:38:18;26.70;48.90
20335;DHT22;10325;51.468;5.804;2023-06-10T03:40:48;26.70;49.00
20335;DHT22;10325;51.468;5.804;2023-06-10T03:43:20;26.70;48.90
20335;DHT22;10325;51.468;5.804;2023-06-10T03:45:52;26.70;49.00
20335;DHT22;10325;51.468;5.804;2023-06-10T03:48:24;26.70;49.00
20335;DHT22;10325;51.468;5.804;2023-06-10T03:50:54;26.70;49.10
20335;DHT22;10325;51.468;5.804;2023-06-10T03:53:25;26.70;49.00
20335;DHT22;10325;51.468;5.804;2023-06-10T03:55:56;26.70;49.00
20335;DHT22;10325;51.468;5.804;2023-06-10T03:58:27;26.70;49.00
20335;DHT22;10325;51.468;5.804;2023-06-10T04:00:58;26.70;49.10
20335;DHT22;10325;51.468;5.804;2023-06-10T04:03:26;26.70;49.00
20335;DHT22;10325;51.468;5.804;2023-06-10T04:06:05;26.70;49.10
20335;DHT22;10325;51.468;5.804;2023-06-10T04:08:35;26.70;49.10
20335;DHT22;10325;51.468;5.804;2023-06-10T04:11:09;26.70;49.10
20335;DHT22;10325;51.468;5.804;2023-06-10T04:13:38;26.70;49.10
20335;DHT22;10325;51.468;5.804;2023-06-10T04:16:10;26.60;49.00
20335;DHT22;10325;51.468;5.804;2023-06-10T04:18:40;26.60;49.00
20335;DHT22;10325;51.468;5.804;2023-06-10T04:21:12;26.60;49.00
20335;DHT22;10325;51.468;5.804;2023-06-10T04:23:42;26.60;49.00
20335;DHT22;10325;51.468;5.804;2023-06-10T04:26:12;26.60;49.10
20335;DHT22;10325;51.468;5.804;2023-06-10T04:28:44;26.60;49.00
20335;DHT22;10325;51.468;5.804;2023-06-10T04:31:15;26.60;49.10
20335;DHT22;10325;51.468;5.804;2023-06-10T04:33:45;26.60;49.10
20335;DHT22;10325;51.468;5.804;2023-06-10T04:36:16;26.60;49.10
20335;DHT22;10325;51.468;5.804;2023-06-10T04:38:47;26.60;49.10
20335;DHT22;10325;51.468;5.804;2023-06-10T04:41:19;26.50;49.10
20335;DHT22;10325;51.468;5.804;2023-06-10T04:43:51;26.60;49.10
20335;DHT22;10325;51.468;5.804;2023-06-10T04:46:22;26.50;49.10
20335;DHT22;10325;51.468;5.804;2023-06-10T04:48:52;26.50;49.10
20335;DHT22;10325;51.468;5.804;2023-06-10T04:51:28;26.50;49.10
20335;DHT22;10325;51.468;5.804;2023-06-10T04:53:59;26.50;49.10
20335;DHT22;10325;51.468;5.804;2023-06-10T04:56:33;26.50;49.10
20335;DHT22;10325;51.468;5.804;2023-06-10T04:59:03;26.50;49.10
20335;DHT22;10325;51.468;5.804;2023-06-10T05:01:36;26.50;49.20
20335;DHT22;10325;51.468;5.804;2023-06-10T05:04:07;26.50;49.10
20335;DHT22;10325;51.468;5.804;2023-06-10T05:06:38;26.50;49.10
20335;DHT22;10325;51.468;5.804;2023-06-10T05:09:09;26.50;49.10
20335;DHT22;10325;51.468;5.804;2023-06-10T05:11:40;26.50;49.20
20335;DHT22;10325;51.468;5.804;2023-06-10T05:14:12;26.50;49.30
20335;DHT22;10325;51.468;5.804;2023-06-10T05:16:40;26.50;49.30
20335;DHT22;10325;51.468;5.804;2023-06-10T05:19:14;26.50;49.30
20335;DHT22;10325;51.468;5.804;2023-06-10T05:21:46;26.50;49.30
20335;DHT22;10325;51.468;5.804;2023-06-10T05:24:18;26.50;49.30
20335;DHT22;10325;51.468;5.804;2023-06-10T05:26:58;26.50;49.30
20335;DHT22;10325;51.468;5.804;2023-06-10T05:29:26;26.50;49.30
20335;DHT22;10325;51.468;5.804;2023-06-10T05:31:59;26.50;49.30
20335;DHT22;10325;51.468;5.804;2023-06-10T05:34:32;26.50;49.40
20335;DHT22;10325;51.468;5.804;2023-06-10T05:37:04;26.40;49.30
20335;DHT22;10325;51.468;5.804;2023-06-10T05:39:35;26.40;49.20
20335;DHT22;10325;51.468;5.804;2023-06-10T05:42:08;26.50;49.30
20335;DHT22;10325;51.468;5.804;2023-06-10T05:44:37;26.40;49.30
20335;DHT22;10325;51.468;5.804;2023-06-10T05:47:10;26.40;49.30
20335;DHT22;10325;51.468;5.804;2023-06-10T05:49:40;26.40;49.30
20335;DHT22;10325;51.468;5.804;2023-06-10T05:52:11;26.40;49.30
20335;DHT22;10325;51.468;5.804;2023-06-10T05:54:43;26.50;49.40
20335;DHT22;10325;51.468;5.804;2023-06-10T05:57:11;26.40;49.30
20335;DHT22;10325;51.468;5.804;2023-06-10T05:59:41;26.40;49.30
20335;DHT22;10325;51.468;5.804;2023-06-10T06:02:11;26.40;49.30
20335;DHT22;10325;51.468;5.804;2023-06-10T06:04:44;26.40;49.30
20335;DHT22;10325;51.468;5.804;2023-06-10T06:07:14;26.40;49.30
20335;DHT22;10325;51.468;5.804;2023-06-10T06:09:44;26.40;49.30
20335;DHT22;10325;51.468;5.804;2023-06-10T06:12:13;26.40;49.30
20335;DHT22;10325;51.468;5.804;2023-06-10T06:14:45;26.50;49.40
20335;DHT22;10325;51.468;5.804;2023-06-10T06:17:12;26.40;49.40
20335;DHT22;10325;51.468;5.804;2023-06-10T06:19:46;26.40;49.40
20335;DHT22;10325;51.468;5.804;2023-06-10T06:22:16;26.40;49.30
20335;DHT22;10325;51.468;5.804;2023-06-10T06:24:51;26.40;49.30
20335;DHT22;10325;51.468;5.804;2023-06-10T06:27:28;26.40;49.30
20335;DHT22;10325;51.468;5.804;2023-06-10T06:30:04;26.40;49.30
20335;DHT22;10325;51.468;5.804;2023-06-10T06:32:37;26.50;49.40
20335;DHT22;10325;51.468;5.804;2023-06-10T06:35:08;26.40;49.30
20335;DHT22;10325;51.468;5.804;2023-06-10T06:37:37;26.40;49.30
20335;DHT22;10325;51.468;5.804;2023-06-10T06:40:08;26.40;49.30
20335;DHT22;10325;51.468;5.804;2023-06-10T06:42:36;26.40;49.30
20335;DHT22;10325;51.468;5.804;2023-06-10T06:45:06;26.40;49.30
20335;DHT22;10325;51.468;5.804;2023-06-10T06:47:38;26.40;49.30
20335;DHT22;10325;51.468;5.804;2023-06-10T06:50:08;26.40;49.30
20335;DHT22;10325;51.468;5.804;2023-06-10T06:52:40;26.50;49.40
20335;DHT22;10325;51.468;5.804;2023-06-10T06:55:14;26.40;49.90
20335;DHT22;10325;51.468;5.804;2023-06-10T06:57:45;26.40;49.30
20335;DHT22;10325;51.468;5.804;2023-06-10T07:00:16;26.40;49.30
20335;DHT22;10325;51.468;5.804;2023-06-10T07:02:45;26.40;49.30
20335;DHT22;10325;51.468;5.804;2023-06-10T07:05:14;26.40;49.30
20335;DHT22;10325;51.468;5.804;2023-06-10T07:07:50;26.50;49.30
20335;DHT22;10325;51.468;5.804;2023-06-10T07:10:26;26.40;49.30
20335;DHT22;10325;51.468;5.804;2023-06-10T07:12:55;26.50;49.30
20335;DHT22;10325;51.468;5.804;2023-06-10T07:15:26;26.50;49.30
20335;DHT22;10325;51.468;5.804;2023-06-10T07:17:57;26.50;49.40
20335;DHT22;10325;51.468;5.804;2023-06-10T07:20:26;26.50;49.30
20335;DHT22;10325;51.468;5.804;2023-06-10T07:22:56;26.40;49.20
20335;DHT22;10325;51.468;5.804;2023-06-10T07:25:28;26.50;49.30
20335;DHT22;10325;51.468;5.804;2023-06-10T07:27:58;26.50;49.30
20335;DHT22;10325;51.468;5.804;2023-06-10T07:30:42;26.50;49.30
20335;DHT22;10325;51.468;5.804;2023-06-10T07:33:12;26.50;49.40
20335;DHT22;10325;51.468;5.804;2023-06-10T07:35:42;26.50;49.40
20335;DHT22;10325;51.468;5.804;2023-06-10T07:38:12;26.50;49.30
20335;DHT22;10325;51.468;5.804;2023-06-10T07:40:43;26.50;49.40
20335;DHT22;10325;51.468;5.804;2023-06-10T07:43:13;26.50;49.40
20335;DHT22;10325;51.468;5.804;2023-06-10T07:45:43;26.50;49.40
20335;DHT22;10325;51.468;5.804;2023-06-10T07:48:13;26.50;49.40
20335;DHT22;10325;51.468;5.804;2023-06-10T07:50:43;26.50;49.40
20335;DHT22;10325;51.468;5.804;2023-06-10T07:53:14;26.50;49.40
20335;DHT22;10325;51.468;5.804;2023-06-10T07:55:46;26.50;49.40
20335;DHT22;10325;51.468;5.804;2023-06-10T07:58:17;26.60;49.50
20335;DHT22;10325;51.468;5.804;2023-06-10T08:00:50;26.50;49.40
20335;DHT22;10325;51.468;5.804;2023-06-10T08:03:21;26.50;49.40
20335;DHT22;10325;51.468;5.804;2023-06-10T08:05:51;26.50;49.40
20335;DHT22;10325;51.468;5.804;2023-06-10T08:08:21;26.60;49.50
20335;DHT22;10325;51.468;5.804;2023-06-10T08:10:50;26.50;49.40
20335;DHT22;10325;51.468;5.804;2023-06-10T08:13:23;26.50;49.40
20335;DHT22;10325;51.468;5.804;2023-06-10T08:15:56;26.60;49.60
20335;DHT22;10325;51.468;5.804;2023-06-10T08:18:28;26.60;49.60
20335;DHT22;10325;51.468;5.804;2023-06-10T08:20:57;26.60;49.60
20335;DHT22;10325;51.468;5.804;2023-06-10T08:23:27;26.60;49.60
20335;DHT22;10325;51.468;5.804;2023-06-10T08:25:58;26.60;49.60
20335;DHT22;10325;51.468;5.804;2023-06-10T08:28:30;26.60;49.60
20335;DHT22;10325;51.468;5.804;2023-06-10T08:30:57;26.60;49.60
20335;DHT22;10325;51.468;5.804;2023-06-10T08:33:28;26.60;49.60
20335;DHT22;10325;51.468;5.804;2023-06-10T08:36:00;26.60;49.60
20335;DHT22;10325;51.468;5.804;2023-06-10T08:38:30;26.70;50.30
20335;DHT22;10325;51.468;5.804;2023-06-10T08:41:05;26.60;49.60
20335;DHT22;10325;51.468;5.804;2023-06-10T08:43:39;26.70;49.70
20335;DHT22;10325;51.468;5.804;2023-06-10T08:46:23;26.70;49.70
20335;DHT22;10325;51.468;5.804;2023-06-10T08:48:55;26.70;50.30
20335;DHT22;10325;51.468;5.804;2023-06-10T08:51:26;26.70;49.70
20335;DHT22;10325;51.468;5.804;2023-06-10T08:54:04;26.70;49.70
20335;DHT22;10325;51.468;5.804;2023-06-10T08:56:40;26.70;49.70
20335;DHT22;10325;51.468;5.804;2023-06-10T08:59:13;26.70;49.70
20335;DHT22;10325;51.468;5.804;2023-06-10T09:01:46;26.70;49.70
20335;DHT22;10325;51.468;5.804;2023-06-10T09:04:16;26.70;49.70
20335;DHT22;10325;51.468;5.804;2023-06-10T09:06:47;26.80;49.80
20335;DHT22;10325;51.468;5.804;2023-06-10T09:09:19;26.80;49.90
20335;DHT22;10325;51.468;5.804;2023-06-10T09:12:03;26.80;50.00
20335;DHT22;10325;51.468;5.804;2023-06-10T09:14:41;26.80;50.00
20335;DHT22;10325;51.468;5.804;2023-06-10T09:17:10;26.80;50.00
20335;DHT22;10325;51.468;5.804;2023-06-10T09:19:44;26.80;50.00
20335;DHT22;10325;51.468;5.804;2023-06-10T09:22:11;26.80;50.10
20335;DHT22;10325;51.468;5.804;2023-06-10T09:24:44;26.80;50.10
20335;DHT22;10325;51.468;5.804;2023-06-10T09:27:14;26.80;50.00
20335;DHT22;10325;51.468;5.804;2023-06-10T09:29:54;26.90;50.10
20335;DHT22;10325;51.468;5.804;2023-06-10T09:32:38;26.90;50.10
20335;DHT22;10325;51.468;5.804;2023-06-10T09:35:24;26.90;50.10
20335;DHT22;10325;51.468;5.804;2023-06-10T09:38:01;26.90;50.20
20335;DHT22;10325;51.468;5.804;2023-06-10T09:40:32;26.90;50.20
20335;DHT22;10325;51.468;5.804;2023-06-10T09:43:07;26.90;50.20
20335;DHT22;10325;51.468;5.804;2023-06-10T09:45:35;27.00;50.20
20335;DHT22;10325;51.468;5.804;2023-06-10T09:48:05;27.00;50.30
20335;DHT22;10325;51.468;5.804;2023-06-10T09:50:41;26.90;50.20
20335;DHT22;10325;51.468;5.804;2023-06-10T09:53:23;27.00;50.30
20335;DHT22;10325;51.468;5.804;2023-06-10T09:55:57;27.00;50.20
20335;DHT22;10325;51.468;5.804;2023-06-10T09:58:37;27.00;50.20
20335;DHT22;10325;51.468;5.804;2023-06-10T10:01:11;27.00;50.80
20335;DHT22;10325;51.468;5.804;2023-06-10T10:03:52;27.00;50.90
20335;DHT22;10325;51.468;5.804;2023-06-10T10:06:25;27.00;50.30
20335;DHT22;10325;51.468;5.804;2023-06-10T10:08:58;27.10;50.40
20335;DHT22;10325;51.468;5.804;2023-06-10T10:11:32;27.10;50.90
20335;DHT22;10325;51.468;5.804;2023-06-10T10:14:04;27.10;50.30
20335;DHT22;10325;51.468;5.804;2023-06-10T10:16:37;27.10;50.30
20335;DHT22;10325;51.468;5.804;2023-06-10T10:19:48;27.10;50.40
20335;DHT22;10325;51.468;5.804;2023-06-10T10:22:31;27.20;50.40
20335;DHT22;10325;51.468;5.804;2023-06-10T10:28:12;27.20;50.40
20335;DHT22;10325;51.468;5.804;2023-06-10T10:30:54;27.20;50.40
20335;DHT22;10325;51.468;5.804;2023-06-10T10:33:55;27.20;50.30
20335;DHT22;10325;51.468;5.804;2023-06-10T10:36:28;27.20;50.40
20335;DHT22;10325;51.468;5.804;2023-06-10T10:38:58;27.30;50.40
20335;DHT22;10325;51.468;5.804;2023-06-10T10:41:30;27.30;50.30
20335;DHT22;10325;51.468;5.804;2023-06-10T10:44:01;27.30;50.30
20335;DHT22;10325;51.468;5.804;2023-06-10T10:46:42;27.30;50.40
20335;DHT22;10325;51.468;5.804;2023-06-10T10:49:20;27.40;50.50
20335;DHT22;10325;51.468;5.804;2023-06-10T10:51:56;27.30;50.60
20335;DHT22;10325;51.468;5.804;2023-06-10T10:54:35;27.40;50.80
20335;DHT22;10325;51.468;5.804;2023-06-10T10:57:15;27.40;50.70
20335;DHT22;10325;51.468;5.804;2023-06-10T11:00:00;27.40;50.90
20335;DHT22;10325;51.468;5.804;2023-06-10T11:02:45;27.40;50.80
20335;DHT22;10325;51.468;5.804;2023-06-10T11:05:19;27.50;50.80
20335;DHT22;10325;51.468;5.804;2023-06-10T11:07:59;27.50;50.80
20335;DHT22;10325;51.468;5.804;2023-06-10T11:10:35;27.50;50.70
20335;DHT22;10325;51.468;5.804;2023-06-10T11:13:15;27.50;50.70
20335;DHT22;10325;51.468;5.804;2023-06-10T11:15:48;27.60;50.70
20335;DHT22;10325;51.468;5.804;2023-06-10T11:18:29;27.60;50.70
20335;DHT22;10325;51.468;5.804;2023-06-10T11:21:10;27.60;50.70
20335;DHT22;10325;51.468;5.804;2023-06-10T11:23:42;27.60;50.80
20335;DHT22;10325;51.468;5.804;2023-06-10T11:26:31;27.60;50.70
20335;DHT22;10325;51.468;5.804;2023-06-10T11:29:06;27.70;50.70
20335;DHT22;10325;51.468;5.804;2023-06-10T11:31:39;27.70;50.70
20335;DHT22;10325;51.468;5.804;2023-06-10T11:34:10;27.70;50.70
20335;DHT22;10325;51.468;5.804;2023-06-10T11:36:41;27.70;50.70
20335;DHT22;10325;51.468;5.804;2023-06-10T11:39:10;27.80;50.80
20335;DHT22;10325;51.468;5.804;2023-06-10T11:41:42;27.80;50.80
20335;DHT22;10325;51.468;5.804;2023-06-10T11:44:14;27.80;50.70
20335;DHT22;10325;51.468;5.804;2023-06-10T11:46:50;27.90;50.60
20335;DHT22;10325;51.468;5.804;2023-06-10T11:49:21;27.90;50.50
20335;DHT22;10325;51.468;5.804;2023-06-10T11:51:56;27.90;50.30
20335;DHT22;10325;51.468;5.804;2023-06-10T11:54:25;27.90;50.30
20335;DHT22;10325;51.468;5.804;2023-06-10T11:56:58;27.90;50.30
20335;DHT22;10325;51.468;5.804;2023-06-10T11:59:31;28.00;50.30
20335;DHT22;10325;51.468;5.804;2023-06-10T12:02:01;28.00;50.30
20335;DHT22;10325;51.468;5.804;2023-06-10T12:04:31;28.00;50.10
20335;DHT22;10325;51.468;5.804;2023-06-10T12:06:59;28.00;50.00
20335;DHT22;10325;51.468;5.804;2023-06-10T12:09:30;28.00;50.00
20335;DHT22;10325;51.468;5.804;2023-06-10T12:12:07;28.10;50.10
20335;DHT22;10325;51.468;5.804;2023-06-10T12:15:06;28.10;50.20
20335;DHT22;10325;51.468;5.804;2023-06-10T12:17:42;28.10;50.40
20335;DHT22;10325;51.468;5.804;2023-06-10T12:20:31;28.10;50.50
20335;DHT22;10325;51.468;5.804;2023-06-10T12:23:10;28.10;50.30
20335;DHT22;10325;51.468;5.804;2023-06-10T12:25:50;28.20;50.20
20335;DHT22;10325;51.468;5.804;2023-06-10T12:28:26;28.20;50.10
20335;DHT22;10325;51.468;5.804;2023-06-10T12:31:10;28.20;50.10
20335;DHT22;10325;51.468;5.804;2023-06-10T12:33:39;28.30;50.10
20335;DHT22;10325;51.468;5.804;2023-06-10T12:36:16;28.20;50.20
20335;DHT22;10325;51.468;5.804;2023-06-10T12:38:47;28.30;50.40
20335;DHT22;10325;51.468;5.804;2023-06-10T12:41:43;28.30;51.00
20335;DHT22;10325;51.468;5.804;2023-06-10T12:44:29;28.30;50.40
20335;DHT22;10325;51.468;5.804;2023-06-10T12:47:06;28.30;50.30
20335;DHT22;10325;51.468;5.804;2023-06-10T12:49:38;28.40;50.30
20335;DHT22;10325;51.468;5.804;2023-06-10T12:52:06;28.40;50.30
20335;DHT22;10325;51.468;5.804;2023-06-10T12:54:35;28.40;50.30
20335;DHT22;10325;51.468;5.804;2023-06-10T12:57:06;28.50;50.20
20335;DHT22;10325;51.468;5.804;2023-06-10T12:59:36;28.40;49.90
20335;DHT22;10325;51.468;5.804;2023-06-10T13:02:13;28.50;49.70
20335;DHT22;10325;51.468;5.804;2023-06-10T13:04:50;28.50;49.70
20335;DHT22;10325;51.468;5.804;2023-06-10T13:07:22;28.50;49.80
20335;DHT22;10325;51.468;5.804;2023-06-10T13:09:54;28.50;50.00
20335;DHT22;10325;51.468;5.804;2023-06-10T13:12:30;28.50;49.90
20335;DHT22;10325;51.468;5.804;2023-06-10T13:15:14;28.60;50.10
20335;DHT22;10325;51.468;5.804;2023-06-10T13:17:43;28.60;50.20
20335;DHT22;10325;51.468;5.804;2023-06-10T13:20:20;28.60;50.10
20335;DHT22;10325;51.468;5.804;2023-06-10T13:22:54;28.60;49.90
20335;DHT22;10325;51.468;5.804;2023-06-10T13:25:25;28.70;49.90
20335;DHT22;10325;51.468;5.804;2023-06-10T13:27:56;28.70;49.80
20335;DHT22;10325;51.468;5.804;2023-06-10T13:30:24;28.70;49.80
20335;DHT22;10325;51.468;5.804;2023-06-10T13:32:54;28.70;49.80
20335;DHT22;10325;51.468;5.804;2023-06-10T13:35:27;28.80;50.20
20335;DHT22;10325;51.468;5.804;2023-06-10T13:37:59;28.80;49.30
20335;DHT22;10325;51.468;5.804;2023-06-10T13:40:28;28.80;49.70
20335;DHT22;10325;51.468;5.804;2023-06-10T13:42:59;28.80;48.90
20335;DHT22;10325;51.468;5.804;2023-06-10T13:45:31;28.80;48.90
20335;DHT22;10325;51.468;5.804;2023-06-10T13:48:09;28.80;48.90
20335;DHT22;10325;51.468;5.804;2023-06-10T13:50:38;28.90;49.10
20335;DHT22;10325;51.468;5.804;2023-06-10T13:53:06;28.90;49.10
20335;DHT22;10325;51.468;5.804;2023-06-10T13:55:35;28.90;49.10
20335;DHT22;10325;51.468;5.804;2023-06-10T13:58:06;28.90;49.00
20335;DHT22;10325;51.468;5.804;2023-06-10T14:00:36;29.00;48.90
20335;DHT22;10325;51.468;5.804;2023-06-10T14:03:07;29.00;48.90
20335;DHT22;10325;51.468;5.804;2023-06-10T14:05:37;29.00;49.10
20335;DHT22;10325;51.468;5.804;2023-06-10T14:08:06;29.00;49.10
20335;DHT22;10325;51.468;5.804;2023-06-10T14:10:42;29.00;49.00
20335;DHT22;10325;51.468;5.804;2023-06-10T14:13:11;29.10;48.90
20335;DHT22;10325;51.468;5.804;2023-06-10T14:15:41;29.10;48.90
20335;DHT22;10325;51.468;5.804;2023-06-10T14:18:10;29.10;48.90
20335;DHT22;10325;51.468;5.804;2023-06-10T14:20:40;29.10;48.80
20335;DHT22;10325;51.468;5.804;2023-06-10T14:23:12;29.10;48.90
20335;DHT22;10325;51.468;5.804;2023-06-10T14:25:43;29.10;49.00
20335;DHT22;10325;51.468;5.804;2023-06-10T14:28:15;29.10;49.10
20335;DHT22;10325;51.468;5.804;2023-06-10T14:30:47;29.10;49.10
20335;DHT22;10325;51.468;5.804;2023-06-10T14:33:21;29.20;49.10
20335;DHT22;10325;51.468;5.804;2023-06-10T14:35:54;29.20;49.00
20335;DHT22;10325;51.468;5.804;2023-06-10T14:38:22;29.20;48.60
20335;DHT22;10325;51.468;5.804;2023-06-10T14:40:59;29.20;48.20
20335;DHT22;10325;51.468;5.804;2023-06-10T14:43:29;29.20;48.00
20335;DHT22;10325;51.468;5.804;2023-06-10T14:45:58;29.30;48.20
20335;DHT22;10325;51.468;5.804;2023-06-10T14:48:29;29.30;48.20
20335;DHT22;10325;51.468;5.804;2023-06-10T14:50:58;29.30;48.30
20335;DHT22;10325;51.468;5.804;2023-06-10T14:53:28;29.30;48.40
20335;DHT22;10325;51.468;5.804;2023-06-10T14:56:02;29.30;48.30
20335;DHT22;10325;51.468;5.804;2023-06-10T14:58:32;29.30;48.30
20335;DHT22;10325;51.468;5.804;2023-06-10T15:01:00;29.40;48.50
20335;DHT22;10325;51.468;5.804;2023-06-10T15:03:30;29.40;48.70
20335;DHT22;10325;51.468;5.804;2023-06-10T15:06:01;29.40;48.60
20335;DHT22;10325;51.468;5.804;2023-06-10T15:08:32;29.40;48.60
20335;DHT22;10325;51.468;5.804;2023-06-10T15:11:03;29.40;48.60
20335;DHT22;10325;51.468;5.804;2023-06-10T15:13:35;29.40;48.50
20335;DHT22;10325;51.468;5.804;2023-06-10T15:16:05;29.40;48.50
20335;DHT22;10325;51.468;5.804;2023-06-10T15:18:37;29.40;48.50
20335;DHT22;10325;51.468;5.804;2023-06-10T15:21:16;29.40;48.60
20335;DHT22;10325;51.468;5.804;2023-06-10T15:23:46;29.50;48.70
20335;DHT22;10325;51.468;5.804;2023-06-10T15:26:17;29.50;48.60
20335;DHT22;10325;51.468;5.804;2023-06-10T15:28:49;29.50;48.30
20335;DHT22;10325;51.468;5.804;2023-06-10T15:31:17;29.50;48.30
20335;DHT22;10325;51.468;5.804;2023-06-10T15:33:49;29.50;48.20
20335;DHT22;10325;51.468;5.804;2023-06-10T15:36:20;29.50;48.10
20335;DHT22;10325;51.468;5.804;2023-06-10T15:38:51;29.50;48.10
20335;DHT22;10325;51.468;5.804;2023-06-10T15:41:25;29.50;48.00
20335;DHT22;10325;51.468;5.804;2023-06-10T15:43:57;29.60;48.10
20335;DHT22;10325;51.468;5.804;2023-06-10T15:46:31;29.60;48.10
20335;DHT22;10325;51.468;5.804;2023-06-10T15:49:04;29.60;48.10
20335;DHT22;10325;51.468;5.804;2023-06-10T15:51:32;29.60;48.10
20335;DHT22;10325;51.468;5.804;2023-06-10T15:54:03;29.60;48.00
20335;DHT22;10325;51.468;5.804;2023-06-10T15:56:31;29.60;47.90
20335;DHT22;10325;51.468;5.804;2023-06-10T15:59:03;29.60;48.00
20335;DHT22;10325;51.468;5.804;2023-06-10T16:01:32;29.60;47.90
20335;DHT22;10325;51.468;5.804;2023-06-10T16:04:01;29.70;48.20
20335;DHT22;10325;51.468;5.804;2023-06-10T16:06:46;29.70;48.30
20335;DHT22;10325;51.468;5.804;2023-06-10T16:09:20;29.70;48.30